sensor_id;sensor_type;location;lat;lon;timestamp;pressure;altitude;pressure_sealevel;temperature;humidity
55685;BME280;41883;49.544;8.646;2023-01-15T00:02:04;99158.59;;;9.73;99.59
55685;BME280;41883;49.544;8.646;2023-01-15T00:04:29;99138.66;;;9.71;99.73
55685;BME280;41883;49.544;8.646;2023-01-15T00:06:55;99145.56;;;9.72;99.66
55685;BME280;41883;49.544;8.646;2023-01-15T00:09:20;99133.38;;;9.71;100.00
55685;BME280;41883;49.544;8.646;2023-01-15T00:11:45;99132.91;;;9.67;100.00
55685;BME280;41883;49.544;8.646;2023-01-15T00:14:10;99135.56;;;9.67;100.00
55685;BME280;41883;49.544;8.646;2023-01-15T00:16:36;99131.13;;;9.68;100.00
55685;BME280;41883;49.544;8.646;2023-01-15T00:19:05;99130.09;;;9.69;100.00
55685;BME280;41883;49.544;8.646;2023-01-15T00:21:33;99123.81;;;9.70;100.00
55685;BME280;41883;49.544;8.646;2023-01-15T00:23:58;99116.25;;;9.67;100.00
55685;BME280;41883;49.544;8.646;2023-01-15T00:26:42;99110.97;;;9.67;100.00
55685;BME280;41883;49.544;8.646;2023-01-15T00:29:27;99105.34;;;9.70;100.00
55685;BME280;41883;49.544;8.646;2023-01-15T00:31:58;99095.06;;;9.75;100.00
55685;BME280;41883;49.544;8.646;2023-01-15T00:34:24;99092.44;;;9.75;100.00
55685;BME280;41883;49.544;8.646;2023-01-15T00:36:50;99083.50;;;9.76;100.00
55685;BME280;41883;49.544;8.646;2023-01-15T00:39:15;99086.97;;;9.76;100.00
55685;BME280;41883;49.544;8.646;2023-01-15T00:41:41;99092.78;;;9.72;100.00
55685;BME280;41883;49.544;8.646;2023-01-15T00:44:06;99085.50;;;9.74;100.00
55685;BME280;41883;49.544;8.646;2023-01-15T00:46:32;99079.03;;;9.76;99.97
55685;BME280;41883;49.544;8.646;2023-01-15T00:48:57;99075.97;;;9.73;100.00
55685;BME280;41883;49.544;8.646;2023-01-15T00:51:23;99076.41;;;9.76;100.00
55685;BME280;41883;49.544;8.646;2023-01-15T00:53:48;99076.22;;;9.78;99.98
55685;BME280;41883;49.544;8.646;2023-01-15T00:56:13;99082.69;;;9.75;100.00
55685;BME280;41883;49.544;8.646;2023-01-15T00:58:38;99074.94;;;9.74;100.00
55685;BME280;41883;49.544;8.646;2023-01-15T01:01:04;99074.56;;;9.77;100.00
55685;BME280;41883;49.544;8.646;2023-01-15T01:03:29;99069.28;;;9.77;100.00
55685;BME280;41883;49.544;8.646;2023-01-15T01:06:02;99069.13;;;9.78;100.00
55685;BME280;41883;49.544;8.646;2023-01-15T01:08:28;99076.88;;;9.80;100.00
55685;BME280;41883;49.544;8.646;2023-01-15T01:11:04;99058.72;;;9.77;100.00
55685;BME280;41883;49.544;8.646;2023-01-15T01:13:30;99066.09;;;9.82;100.00
55685;BME280;41883;49.544;8.646;2023-01-15T01:15:55;99071.59;;;9.80;100.00
55685;BME280;41883;49.544;8.646;2023-01-15T01:18:24;99068.56;;;9.83;100.00
55685;BME280;41883;49.544;8.646;2023-01-15T01:20:51;99070.19;;;9.84;100.00
55685;BME280;41883;49.544;8.646;2023-01-15T01:23:17;99059.38;;;9.79;100.00
55685;BME280;41883;49.544;8.646;2023-01-15T01:25:43;99056.38;;;9.82;100.00
55685;BME280;41883;49.544;8.646;2023-01-15T01:28:10;99044.19;;;9.81;100.00
55685;BME280;41883;49.544;8.646;2023-01-15T01:30:37;99053.28;;;9.78;100.00
55685;BME280;41883;49.544;8.646;2023-01-15T01:33:03;99044.66;;;9.85;100.00
55685;BME280;41883;49.544;8.646;2023-01-15T01:35:28;99038.25;;;9.79;100.00
55685;BME280;41883;49.544;8.646;2023-01-15T01:37:57;99049.44;;;9.81;100.00
55685;BME280;41883;49.544;8.646;2023-01-15T01:40:23;99040.91;;;9.79;100.00
55685;BME280;41883;49.544;8.646;2023-01-15T01:42:48;99044.81;;;9.83;100.00
55685;BME280;41883;49.544;8.646;2023-01-15T01:47:43;99041.53;;;9.81;100.00
55685;BME280;41883;49.544;8.646;2023-01-15T01:50:11;99037.28;;;9.80;100.00
55685;BME280;41883;49.544;8.646;2023-01-15T01:52:44;99040.56;;;9.82;100.00
55685;BME280;41883;49.544;8.646;2023-01-15T01:55:13;99045.81;;;9.82;100.00
55685;BME280;41883;49.544;8.646;2023-01-15T01:57:39;99048.00;;;9.78;100.00
55685;BME280;41883;49.544;8.646;2023-01-15T02:00:06;99036.44;;;9.79;100.00
55685;BME280;41883;49.544;8.646;2023-01-15T02:02:32;99043.34;;;9.81;100.00
55685;BME280;41883;49.544;8.646;2023-01-15T02:04:58;99042.56;;;9.80;100.00
55685;BME280;41883;49.544;8.646;2023-01-15T02:07:24;99034.09;;;9.85;100.00
55685;BME280;41883;49.544;8.646;2023-01-15T02:09:50;99037.91;;;9.82;100.00
55685;BME280;41883;49.544;8.646;2023-01-15T02:12:24;99033.19;;;9.77;100.00
55685;BME280;41883;49.544;8.646;2023-01-15T02:14:58;99034.97;;;9.77;100.00
55685;BME280;41883;49.544;8.646;2023-01-15T02:17:32;99025.69;;;9.81;100.00
55685;BME280;41883;49.544;8.646;2023-01-15T02:20:15;99034.81;;;9.78;100.00
55685;BME280;41883;49.544;8.646;2023-01-15T02:23:05;99030.72;;;9.76;100.00
55685;BME280;41883;49.544;8.646;2023-01-15T02:25:51;99030.72;;;9.76;100.00
55685;BME280;41883;49.544;8.646;2023-01-15T02:28:25;99027.59;;;9.72;100.00
55685;BME280;41883;49.544;8.646;2023-01-15T02:33:31;99020.53;;;9.73;100.00
55685;BME280;41883;49.544;8.646;2023-01-15T02:35:59;99027.00;;;9.70;100.00
55685;BME280;41883;49.544;8.646;2023-01-15T02:38:29;99016.69;;;9.75;100.00
55685;BME280;41883;49.544;8.646;2023-01-15T02:40:57;99023.16;;;9.73;100.00
55685;BME280;41883;49.544;8.646;2023-01-15T02:43:26;99029.63;;;9.70;100.00
55685;BME280;41883;49.544;8.646;2023-01-15T02:45:56;99025.34;;;9.69;100.00
55685;BME280;41883;49.544;8.646;2023-01-15T02:48:24;99026.16;;;9.70;100.00
55685;BME280;41883;49.544;8.646;2023-01-15T02:50:58;99035.09;;;9.69;100.00
55685;BME280;41883;49.544;8.646;2023-01-15T02:53:27;99027.81;;;9.71;100.00
55685;BME280;41883;49.544;8.646;2023-01-15T02:55:57;99031.44;;;9.70;100.00
55685;BME280;41883;49.544;8.646;2023-01-15T02:58:29;99036.44;;;9.65;100.00
55685;BME280;41883;49.544;8.646;2023-01-15T03:00:57;99046.00;;;9.66;100.00
55685;BME280;41883;49.544;8.646;2023-01-15T03:03:35;99056.91;;;9.63;100.00
55685;BME280;41883;49.544;8.646;2023-01-15T03:06:24;99082.69;;;9.61;100.00
55685;BME280;41883;49.544;8.646;2023-01-15T03:08:53;99090.72;;;9.29;100.00
55685;BME280;41883;49.544;8.646;2023-01-15T03:11:19;99094.91;;;9.01;100.00
55685;BME280;41883;49.544;8.646;2023-01-15T03:13:55;99095.59;;;8.80;100.00
55685;BME280;41883;49.544;8.646;2023-01-15T03:16:33;99100.59;;;8.66;100.00
55685;BME280;41883;49.544;8.646;2023-01-15T03:22:25;99107.28;;;8.46;100.00
55685;BME280;41883;49.544;8.646;2023-01-15T03:25:06;99106.66;;;8.44;100.00
55685;BME280;41883;49.544;8.646;2023-01-15T03:27:33;99106.19;;;8.40;100.00
55685;BME280;41883;49.544;8.646;2023-01-15T03:30:05;99115.56;;;8.35;100.00
55685;BME280;41883;49.544;8.646;2023-01-15T03:32:31;99115.44;;;8.28;100.00
55685;BME280;41883;49.544;8.646;2023-01-15T03:34:57;99117.25;;;8.27;100.00
55685;BME280;41883;49.544;8.646;2023-01-15T03:37:24;99121.69;;;8.27;100.00
55685;BME280;41883;49.544;8.646;2023-01-15T03:39:51;99128.63;;;8.20;100.00
55685;BME280;41883;49.544;8.646;2023-01-15T03:45:04;99137.53;;;8.19;100.00
55685;BME280;41883;49.544;8.646;2023-01-15T03:50:49;99142.31;;;8.15;100.00
55685;BME280;41883;49.544;8.646;2023-01-15T03:53:27;99137.88;;;8.16;100.00
55685;BME280;41883;49.544;8.646;2023-01-15T03:56:07;99133.41;;;8.16;100.00
55685;BME280;41883;49.544;8.646;2023-01-15T03:58:40;99139.19;;;8.12;100.00
55685;BME280;41883;49.544;8.646;2023-01-15T04:01:09;99139.69;;;8.07;100.00
55685;BME280;41883;49.544;8.646;2023-01-15T04:03:36;99129.88;;;8.01;100.00
55685;BME280;41883;49.544;8.646;2023-01-15T04:06:02;99143.34;;;7.98;100.00
55685;BME280;41883;49.544;8.646;2023-01-15T04:08:31;99137.13;;;7.91;100.00
55685;BME280;41883;49.544;8.646;2023-01-15T04:10:59;99152.91;;;7.91;100.00
55685;BME280;41883;49.544;8.646;2023-01-15T04:13:25;99150.63;;;7.87;100.00
55685;BME280;41883;49.544;8.646;2023-01-15T04:15:51;99156.38;;;7.83;100.00
55685;BME280;41883;49.544;8.646;2023-01-15T04:18:17;99156.06;;;7.78;100.00
55685;BME280;41883;49.544;8.646;2023-01-15T04:20:43;99154.28;;;7.70;100.00
55685;BME280;41883;49.544;8.646;2023-01-15T04:23:09;99162.47;;;7.67;100.00
55685;BME280;41883;49.544;8.646;2023-01-15T04:25:34;99155.94;;;7.63;100.00
55685;BME280;41883;49.544;8.646;2023-01-15T04:28:00;99163.47;;;7.58;100.00
55685;BME280;41883;49.544;8.646;2023-01-15T04:30:25;99164.81;;;7.54;100.00
55685;BME280;41883;49.544;8.646;2023-01-15T04:32:51;99164.16;;;7.52;100.00
55685;BME280;41883;49.544;8.646;2023-01-15T04:35:17;99167.63;;;7.44;100.00
55685;BME280;41883;49.544;8.646;2023-01-15T04:37:43;99171.41;;;7.41;100.00
55685;BME280;41883;49.544;8.646;2023-01-15T04:40:09;99179.59;;;7.38;100.00
55685;BME280;41883;49.544;8.646;2023-01-15T04:42:55;99178.47;;;7.33;100.00
55685;BME280;41883;49.544;8.646;2023-01-15T04:45:39;99174.69;;;7.27;100.00
55685;BME280;41883;49.544;8.646;2023-01-15T04:48:05;99175.66;;;7.26;100.00
55685;BME280;41883;49.544;8.646;2023-01-15T04:50:30;99182.06;;;7.23;100.00
55685;BME280;41883;49.544;8.646;2023-01-15T04:52:56;99183.22;;;7.21;100.00
55685;BME280;41883;49.544;8.646;2023-01-15T04:55:21;99188.63;;;7.19;100.00
55685;BME280;41883;49.544;8.646;2023-01-15T04:57:48;99181.22;;;7.15;100.00
55685;BME280;41883;49.544;8.646;2023-01-15T05:00:14;99193.75;;;7.13;100.00
55685;BME280;41883;49.544;8.646;2023-01-15T05:02:40;99200.78;;;7.12;100.00
55685;BME280;41883;49.544;8.646;2023-01-15T05:05:06;99207.03;;;7.11;100.00
55685;BME280;41883;49.544;8.646;2023-01-15T05:07:31;99203.75;;;7.09;100.00
55685;BME280;41883;49.544;8.646;2023-01-15T05:09:57;99206.50;;;7.08;100.00
55685;BME280;41883;49.544;8.646;2023-01-15T05:12:22;99202.09;;;7.08;100.00
55685;BME280;41883;49.544;8.646;2023-01-15T05:14:47;99205.22;;;7.04;100.00
55685;BME280;41883;49.544;8.646;2023-01-15T05:17:13;99203.06;;;6.99;100.00
55685;BME280;41883;49.544;8.646;2023-01-15T05:19:38;99216.50;;;6.96;100.00
55685;BME280;41883;49.544;8.646;2023-01-15T05:22:04;99217.19;;;6.98;100.00
55685;BME280;41883;49.544;8.646;2023-01-15T05:24:29;99205.19;;;6.95;100.00
55685;BME280;41883;49.544;8.646;2023-01-15T05:26:55;99206.31;;;6.93;100.00
55685;BME280;41883;49.544;8.646;2023-01-15T05:29:22;99212.72;;;6.90;100.00
55685;BME280;41883;49.544;8.646;2023-01-15T05:31:48;99204.84;;;6.90;100.00
55685;BME280;41883;49.544;8.646;2023-01-15T05:34:13;99216.50;;;6.88;100.00
55685;BME280;41883;49.544;8.646;2023-01-15T05:36:39;99214.03;;;6.86;100.00
55685;BME280;41883;49.544;8.646;2023-01-15T05:39:05;99213.06;;;6.87;100.00
55685;BME280;41883;49.544;8.646;2023-01-15T05:41:30;99217.66;;;6.85;100.00
55685;BME280;41883;49.544;8.646;2023-01-15T05:44:17;99214.34;;;6.83;100.00
55685;BME280;41883;49.544;8.646;2023-01-15T05:46:43;99228.63;;;6.80;100.00
55685;BME280;41883;49.544;8.646;2023-01-15T05:49:12;99222.72;;;6.78;100.00
55685;BME280;41883;49.544;8.646;2023-01-15T05:51:38;99225.53;;;6.77;100.00
55685;BME280;41883;49.544;8.646;2023-01-15T05:54:05;99221.69;;;6.71;100.00
55685;BME280;41883;49.544;8.646;2023-01-15T05:56:34;99242.91;;;6.70;100.00
55685;BME280;41883;49.544;8.646;2023-01-15T05:58:59;99236.97;;;6.68;100.00
55685;BME280;41883;49.544;8.646;2023-01-15T06:01:24;99243.38;;;6.65;100.00
55685;BME280;41883;49.544;8.646;2023-01-15T06:03:50;99235.63;;;6.64;100.00
55685;BME280;41883;49.544;8.646;2023-01-15T06:06:17;99219.69;;;6.57;100.00
55685;BME280;41883;49.544;8.646;2023-01-15T06:08:43;99226.41;;;6.59;100.00
55685;BME280;41883;49.544;8.646;2023-01-15T06:11:09;99225.13;;;6.55;100.00
55685;BME280;41883;49.544;8.646;2023-01-15T06:13:35;99233.13;;;6.54;100.00
55685;BME280;41883;49.544;8.646;2023-01-15T06:16:01;99237.72;;;6.52;100.00
55685;BME280;41883;49.544;8.646;2023-01-15T06:18:27;99248.53;;;6.49;100.00
55685;BME280;41883;49.544;8.646;2023-01-15T06:20:53;99252.31;;;6.46;100.00
55685;BME280;41883;49.544;8.646;2023-01-15T06:23:18;99265.06;;;6.41;100.00
55685;BME280;41883;49.544;8.646;2023-01-15T06:25:44;99290.28;;;6.34;100.00
55685;BME280;41883;49.544;8.646;2023-01-15T06:28:10;99288.81;;;6.31;100.00
55685;BME280;41883;49.544;8.646;2023-01-15T06:30:37;99293.34;;;6.21;100.00
55685;BME280;41883;49.544;8.646;2023-01-15T06:33:03;99296.78;;;6.22;100.00
55685;BME280;41883;49.544;8.646;2023-01-15T06:35:28;99296.63;;;6.23;100.00
55685;BME280;41883;49.544;8.646;2023-01-15T06:37:54;99308.78;;;6.24;100.00
55685;BME280;41883;49.544;8.646;2023-01-15T06:40:19;99313.00;;;6.17;100.00
55685;BME280;41883;49.544;8.646;2023-01-15T06:42:45;99303.63;;;6.14;100.00
55685;BME280;41883;49.544;8.646;2023-01-15T06:45:35;99309.41;;;6.18;100.00
55685;BME280;41883;49.544;8.646;2023-01-15T06:48:20;99303.03;;;6.21;100.00
55685;BME280;41883;49.544;8.646;2023-01-15T06:50:45;99302.81;;;6.14;100.00
55685;BME280;41883;49.544;8.646;2023-01-15T06:53:10;99302.66;;;6.15;100.00
55685;BME280;41883;49.544;8.646;2023-01-15T06:55:37;99307.22;;;6.13;100.00
55685;BME280;41883;49.544;8.646;2023-01-15T06:58:03;99328.38;;;6.12;100.00
55685;BME280;41883;49.544;8.646;2023-01-15T07:00:28;99323.81;;;6.14;100.00
55685;BME280;41883;49.544;8.646;2023-01-15T07:02:53;99334.31;;;6.14;100.00
55685;BME280;41883;49.544;8.646;2023-01-15T07:05:19;99346.59;;;6.13;100.00
55685;BME280;41883;49.544;8.646;2023-01-15T07:07:44;99345.94;;;6.11;100.00
55685;BME280;41883;49.544;8.646;2023-01-15T07:10:10;99354.34;;;6.15;100.00
55685;BME280;41883;49.544;8.646;2023-01-15T07:12:35;99364.84;;;6.15;100.00
55685;BME280;41883;49.544;8.646;2023-01-15T07:15:01;99364.66;;;6.16;100.00
55685;BME280;41883;49.544;8.646;2023-01-15T07:17:26;99373.81;;;6.12;100.00
55685;BME280;41883;49.544;8.646;2023-01-15T07:19:51;99381.03;;;6.10;100.00
55685;BME280;41883;49.544;8.646;2023-01-15T07:22:17;99399.41;;;6.10;100.00
55685;BME280;41883;49.544;8.646;2023-01-15T07:24:42;99391.38;;;6.12;100.00
55685;BME280;41883;49.544;8.646;2023-01-15T07:27:07;99401.03;;;6.11;100.00
55685;BME280;41883;49.544;8.646;2023-01-15T07:29:33;99410.28;;;6.15;100.00
55685;BME280;41883;49.544;8.646;2023-01-15T07:31:58;99406.66;;;6.16;100.00
55685;BME280;41883;49.544;8.646;2023-01-15T07:34:24;99403.34;;;6.14;100.00
55685;BME280;41883;49.544;8.646;2023-01-15T07:36:49;99409.47;;;6.15;100.00
55685;BME280;41883;49.544;8.646;2023-01-15T07:39:15;99406.16;;;6.13;100.00
55685;BME280;41883;49.544;8.646;2023-01-15T07:41:40;99403.34;;;6.14;100.00
55685;BME280;41883;49.544;8.646;2023-01-15T07:44:24;99403.34;;;6.14;100.00
55685;BME280;41883;49.544;8.646;2023-01-15T07:47:15;99405.16;;;6.14;100.00
55685;BME280;41883;49.544;8.646;2023-01-15T07:50:00;99417.16;;;6.16;100.00
55685;BME280;41883;49.544;8.646;2023-01-15T07:52:28;99423.53;;;6.14;100.00
55685;BME280;41883;49.544;8.646;2023-01-15T07:54:54;99433.06;;;6.15;100.00
55685;BME280;41883;49.544;8.646;2023-01-15T07:57:20;99444.59;;;6.04;100.00
55685;BME280;41883;49.544;8.646;2023-01-15T07:59:47;99438.84;;;6.01;100.00
55685;BME280;41883;49.544;8.646;2023-01-15T08:02:13;99443.28;;;5.90;100.00
55685;BME280;41883;49.544;8.646;2023-01-15T08:04:38;99455.59;;;5.90;100.00
55685;BME280;41883;49.544;8.646;2023-01-15T08:07:05;99447.47;;;5.83;100.00
55685;BME280;41883;49.544;8.646;2023-01-15T08:09:31;99448.28;;;5.84;100.00
55685;BME280;41883;49.544;8.646;2023-01-15T08:12:00;99458.41;;;5.79;100.00
55685;BME280;41883;49.544;8.646;2023-01-15T08:14:45;99463.66;;;5.79;100.00
55685;BME280;41883;49.544;8.646;2023-01-15T08:17:32;99459.22;;;5.79;100.00
55685;BME280;41883;49.544;8.646;2023-01-15T08:19:59;99456.59;;;5.79;100.00
55685;BME280;41883;49.544;8.646;2023-01-15T08:22:24;99462.84;;;5.78;100.00
55685;BME280;41883;49.544;8.646;2023-01-15T08:24:50;99463.50;;;5.80;100.00
55685;BME280;41883;49.544;8.646;2023-01-15T08:27:15;99465.16;;;5.81;100.00
55685;BME280;41883;49.544;8.646;2023-01-15T08:29:41;99471.75;;;5.85;100.00
55685;BME280;41883;49.544;8.646;2023-01-15T08:32:06;99464.34;;;5.81;100.00
55685;BME280;41883;49.544;8.646;2023-01-15T08:34:33;99468.31;;;5.85;100.00
55685;BME280;41883;49.544;8.646;2023-01-15T08:36:58;99472.66;;;5.76;99.95
55685;BME280;41883;49.544;8.646;2023-01-15T08:39:27;99487.19;;;5.70;99.82
55685;BME280;41883;49.544;8.646;2023-01-15T08:41:53;99489.41;;;5.65;100.00
55685;BME280;41883;49.544;8.646;2023-01-15T08:44:19;99488.56;;;5.65;100.00
55685;BME280;41883;49.544;8.646;2023-01-15T08:46:46;99483.50;;;5.63;100.00
55685;BME280;41883;49.544;8.646;2023-01-15T08:49:13;99485.38;;;5.71;100.00
55685;BME280;41883;49.544;8.646;2023-01-15T08:51:38;99489.25;;;5.67;99.76
55685;BME280;41883;49.544;8.646;2023-01-15T08:54:04;99493.38;;;5.69;99.69
55685;BME280;41883;49.544;8.646;2023-01-15T08:56:30;99490.63;;;5.71;99.91
55685;BME280;41883;49.544;8.646;2023-01-15T08:58:55;99500.97;;;5.72;100.00
55685;BME280;41883;49.544;8.646;2023-01-15T09:01:21;99496.56;;;5.73;99.81
55685;BME280;41883;49.544;8.646;2023-01-15T09:03:46;99502.75;;;5.72;99.80
55685;BME280;41883;49.544;8.646;2023-01-15T09:06:12;99512.97;;;5.75;98.99
55685;BME280;41883;49.544;8.646;2023-01-15T09:08:38;99514.91;;;5.73;99.32
55685;BME280;41883;49.544;8.646;2023-01-15T09:11:05;99526.53;;;5.70;99.24
55685;BME280;41883;49.544;8.646;2023-01-15T09:13:31;99529.16;;;5.70;99.30
55685;BME280;41883;49.544;8.646;2023-01-15T09:16:01;99529.84;;;5.72;99.53
55685;BME280;41883;49.544;8.646;2023-01-15T09:18:28;99530.50;;;5.74;99.70
55685;BME280;41883;49.544;8.646;2023-01-15T09:20:53;99536.41;;;5.77;99.25
55685;BME280;41883;49.544;8.646;2023-01-15T09:23:19;99544.59;;;5.73;99.19
55685;BME280;41883;49.544;8.646;2023-01-15T09:25:58;99537.84;;;5.71;99.07
55685;BME280;41883;49.544;8.646;2023-01-15T09:28:23;99537.84;;;5.71;99.02
55685;BME280;41883;49.544;8.646;2023-01-15T09:30:49;99537.44;;;5.66;98.72
55685;BME280;41883;49.544;8.646;2023-01-15T09:33:15;99551.25;;;5.68;98.53
55685;BME280;41883;49.544;8.646;2023-01-15T09:35:43;99553.31;;;5.64;98.23
55685;BME280;41883;49.544;8.646;2023-01-15T09:38:13;99550.00;;;5.62;97.96
55685;BME280;41883;49.544;8.646;2023-01-15T09:40:46;99558.72;;;5.63;98.24
55685;BME280;41883;49.544;8.646;2023-01-15T09:43:42;99561.34;;;5.63;98.50
55685;BME280;41883;49.544;8.646;2023-01-15T09:46:19;99572.66;;;5.63;97.58
55685;BME280;41883;49.544;8.646;2023-01-15T09:51:18;99571.25;;;5.69;98.35
55685;BME280;41883;49.544;8.646;2023-01-15T09:56:30;99585.13;;;5.79;97.71
55685;BME280;41883;49.544;8.646;2023-01-15T09:58:58;99587.94;;;5.78;97.46
55685;BME280;41883;49.544;8.646;2023-01-15T10:01:30;99586.69;;;5.82;97.76
55685;BME280;41883;49.544;8.646;2023-01-15T10:04:12;99586.69;;;5.82;97.55
55685;BME280;41883;49.544;8.646;2023-01-15T10:06:44;99591.75;;;5.83;97.64
55685;BME280;41883;49.544;8.646;2023-01-15T10:09:32;99583.38;;;5.80;97.27
55685;BME280;41883;49.544;8.646;2023-01-15T10:12:11;99591.94;;;5.82;97.74
55685;BME280;41883;49.544;8.646;2023-01-15T10:15:24;99600.19;;;5.87;97.39
55685;BME280;41883;49.544;8.646;2023-01-15T10:17:54;99612.63;;;5.85;97.47
55685;BME280;41883;49.544;8.646;2023-01-15T10:25:38;99608.75;;;5.79;96.84
55685;BME280;41883;49.544;8.646;2023-01-15T10:28:17;99626.97;;;5.81;97.34
55685;BME280;41883;49.544;8.646;2023-01-15T10:30:47;99687.75;;;5.66;98.99
55685;BME280;41883;49.544;8.646;2023-01-15T10:36:14;99704.00;;;4.63;93.69
55685;BME280;41883;49.544;8.646;2023-01-15T10:38:56;99696.66;;;4.47;95.81
55685;BME280;41883;49.544;8.646;2023-01-15T10:44:07;99695.06;;;4.25;97.36
55685;BME280;41883;49.544;8.646;2023-01-15T10:46:38;99693.38;;;4.24;97.95
55685;BME280;41883;49.544;8.646;2023-01-15T10:51:55;99693.78;;;4.19;99.19
55685;BME280;41883;49.544;8.646;2023-01-15T10:54:28;99689.25;;;4.21;98.73
55685;BME280;41883;49.544;8.646;2023-01-15T10:57:12;99688.16;;;4.24;99.17
55685;BME280;41883;49.544;8.646;2023-01-15T10:59:46;99684.41;;;4.17;99.04
55685;BME280;41883;49.544;8.646;2023-01-15T11:02:43;99687.47;;;4.22;99.25
55685;BME280;41883;49.544;8.646;2023-01-15T11:05:15;99680.03;;;4.17;99.10
55685;BME280;41883;49.544;8.646;2023-01-15T11:07:46;99686.34;;;4.15;99.13
55685;BME280;41883;49.544;8.646;2023-01-15T11:10:14;99702.28;;;4.12;99.63
55685;BME280;41883;49.544;8.646;2023-01-15T11:12:51;99703.97;;;4.13;99.27
55685;BME280;41883;49.544;8.646;2023-01-15T11:15:35;99703.66;;;4.06;99.26
55685;BME280;41883;49.544;8.646;2023-01-15T11:18:30;99708.59;;;4.09;99.88
55685;BME280;41883;49.544;8.646;2023-01-15T11:21:19;99711.94;;;4.11;99.77
55685;BME280;41883;49.544;8.646;2023-01-15T11:23:52;99705.16;;;4.09;100.00
55685;BME280;41883;49.544;8.646;2023-01-15T11:26:30;99708.88;;;4.06;100.00
55685;BME280;41883;49.544;8.646;2023-01-15T11:28:58;99709.56;;;4.08;99.30
55685;BME280;41883;49.544;8.646;2023-01-15T11:31:36;99701.28;;;4.03;99.34
55685;BME280;41883;49.544;8.646;2023-01-15T11:34:04;99713.84;;;4.09;99.39
55685;BME280;41883;49.544;8.646;2023-01-15T11:36:31;99700.91;;;4.08;100.00
55685;BME280;41883;49.544;8.646;2023-01-15T11:38:57;99703.53;;;4.08;100.00
55685;BME280;41883;49.544;8.646;2023-01-15T11:44:10;99704.03;;;4.01;99.55
55685;BME280;41883;49.544;8.646;2023-01-15T11:46:54;99706.22;;;3.96;99.95
55685;BME280;41883;49.544;8.646;2023-01-15T11:49:38;99690.63;;;3.95;99.70
55685;BME280;41883;49.544;8.646;2023-01-15T11:52:23;99714.13;;;3.85;99.42
55685;BME280;41883;49.544;8.646;2023-01-15T11:54:52;99713.94;;;3.77;98.97
55685;BME280;41883;49.544;8.646;2023-01-15T11:57:28;99713.69;;;3.80;99.61
55685;BME280;41883;49.544;8.646;2023-01-15T11:59:56;99713.75;;;3.69;100.00
55685;BME280;41883;49.544;8.646;2023-01-15T12:02:37;99710.38;;;3.78;100.00
55685;BME280;41883;49.544;8.646;2023-01-15T12:05:27;99711.34;;;3.77;99.88
55685;BME280;41883;49.544;8.646;2023-01-15T12:07:56;99717.38;;;3.77;100.00
55685;BME280;41883;49.544;8.646;2023-01-15T12:16:23;99720.38;;;3.73;100.00
55685;BME280;41883;49.544;8.646;2023-01-15T12:19:14;99699.34;;;3.74;100.00
55685;BME280;41883;49.544;8.646;2023-01-15T12:22:09;99688.75;;;3.76;100.00
55685;BME280;41883;49.544;8.646;2023-01-15T12:25:00;99691.69;;;3.82;100.00
55685;BME280;41883;49.544;8.646;2023-01-15T12:30:27;99687.28;;;4.14;100.00
55685;BME280;41883;49.544;8.646;2023-01-15T12:35:48;99666.59;;;4.41;99.19
55685;BME280;41883;49.544;8.646;2023-01-15T12:38:39;99660.00;;;4.47;98.70
55685;BME280;41883;49.544;8.646;2023-01-15T12:44:33;99661.69;;;4.58;98.36
55685;BME280;41883;49.544;8.646;2023-01-15T12:47:23;99661.41;;;4.61;98.72
55685;BME280;41883;49.544;8.646;2023-01-15T12:50:00;99661.84;;;4.76;99.06
55685;BME280;41883;49.544;8.646;2023-01-15T12:52:34;99642.81;;;4.83;98.25
55685;BME280;41883;49.544;8.646;2023-01-15T12:55:23;99643.94;;;4.81;97.50
55685;BME280;41883;49.544;8.646;2023-01-15T12:57:54;99631.66;;;4.72;97.39
55685;BME280;41883;49.544;8.646;2023-01-15T13:05:52;99630.81;;;4.71;97.80
55685;BME280;41883;49.544;8.646;2023-01-15T13:10:56;99636.34;;;4.78;97.61
55685;BME280;41883;49.544;8.646;2023-01-15T13:13:28;99637.59;;;4.83;97.65
55685;BME280;41883;49.544;8.646;2023-01-15T13:21:26;99647.41;;;5.01;97.63
55685;BME280;41883;49.544;8.646;2023-01-15T13:34:35;99662.66;;;5.64;94.66
55685;BME280;41883;49.544;8.646;2023-01-15T13:37:32;99678.19;;;5.85;94.19
55685;BME280;41883;49.544;8.646;2023-01-15T13:40:14;99678.06;;;5.96;92.59
55685;BME280;41883;49.544;8.646;2023-01-15T13:42:46;99680.28;;;6.01;92.42
55685;BME280;41883;49.544;8.646;2023-01-15T13:47:38;99690.44;;;6.13;91.25
55685;BME280;41883;49.544;8.646;2023-01-15T13:50:16;99693.31;;;6.20;90.42
55685;BME280;41883;49.544;8.646;2023-01-15T13:52:42;99698.41;;;6.22;87.88
55685;BME280;41883;49.544;8.646;2023-01-15T13:57:41;99701.13;;;6.40;87.14
55685;BME280;41883;49.544;8.646;2023-01-15T14:00:27;99710.59;;;6.50;87.15
55685;BME280;41883;49.544;8.646;2023-01-15T14:02:57;99718.28;;;6.62;88.44
55685;BME280;41883;49.544;8.646;2023-01-15T14:05:28;99718.84;;;6.83;87.82
55685;BME280;41883;49.544;8.646;2023-01-15T14:07:54;99720.66;;;7.00;87.98
55685;BME280;41883;49.544;8.646;2023-01-15T14:10:25;99718.22;;;7.17;86.59
55685;BME280;41883;49.544;8.646;2023-01-15T14:13:24;99711.28;;;7.34;86.30
55685;BME280;41883;49.544;8.646;2023-01-15T14:16:10;99720.50;;;7.30;85.00
55685;BME280;41883;49.544;8.646;2023-01-15T14:21:23;99714.69;;;7.08;83.36
55685;BME280;41883;49.544;8.646;2023-01-15T14:30:00;99710.47;;;6.97;82.07
55685;BME280;41883;49.544;8.646;2023-01-15T14:35:00;99710.28;;;6.81;82.14
55685;BME280;41883;49.544;8.646;2023-01-15T14:37:31;99712.06;;;6.63;81.91
55685;BME280;41883;49.544;8.646;2023-01-15T14:39:59;99717.66;;;6.50;82.53
55685;BME280;41883;49.544;8.646;2023-01-15T14:42:34;99718.75;;;6.47;81.83
55685;BME280;41883;49.544;8.646;2023-01-15T14:45:27;99719.34;;;6.41;81.39
55685;BME280;41883;49.544;8.646;2023-01-15T14:47:59;99720.88;;;6.34;81.20
55685;BME280;41883;49.544;8.646;2023-01-15T14:50:41;99723.28;;;6.27;80.75
55685;BME280;41883;49.544;8.646;2023-01-15T14:55:49;99731.59;;;6.23;80.88
55685;BME280;41883;49.544;8.646;2023-01-15T15:00:53;99730.34;;;6.17;81.45